createdAt,value
2018-10-11T00:00:10.065Z,21.70
2018-10-11T00:02:38.724Z,20.30
2018-10-11T00:05:07.439Z,24.17
2018-10-11T00:07:36.192Z,24.47
2018-10-11T00:10:04.948Z,23.77
2018-10-11T00:12:33.625Z,22.03
2018-10-11T00:15:02.264Z,20.93
2018-10-11T00:17:30.948Z,20.70
2018-10-11T00:19:59.644Z,21.13
2018-10-11T00:22:28.356Z,20.17
2018-10-11T00:24:57.014Z,20.20
2018-10-11T00:27:25.723Z,21.40
2018-10-11T00:29:54.382Z,21.90
2018-10-11T00:32:23.048Z,21.53
2018-10-11T00:34:51.727Z,19.80
2018-10-11T00:37:30.597Z,20.00
2018-10-11T00:39:59.248Z,22.60
2018-10-11T00:42:27.933Z,20.60
2018-10-11T00:44:56.574Z,22.17
2018-10-11T00:47:25.235Z,23.20
2018-10-11T00:49:53.893Z,24.30
2018-10-11T00:52:22.581Z,26.00
2018-10-11T00:54:51.240Z,25.70
2018-10-11T00:57:19.886Z,24.93
2018-10-11T00:59:48.554Z,21.27
2018-10-11T01:02:17.232Z,22.37
2018-10-11T01:04:45.872Z,23.97
2018-10-11T01:07:14.578Z,25.10
2018-10-11T01:09:43.272Z,23.10
2018-10-11T01:12:11.956Z,23.80
2018-10-11T01:14:40.617Z,22.87
2018-10-11T01:17:09.757Z,21.43
2018-10-11T01:19:38.429Z,22.30
2018-10-11T01:22:07.177Z,21.90
2018-10-11T01:24:35.897Z,21.97
2018-10-11T01:27:04.610Z,21.80
2018-10-11T01:29:33.477Z,20.73
2018-10-11T01:32:02.186Z,22.33
2018-10-11T01:34:30.910Z,20.80
2018-10-11T01:36:59.576Z,21.47
2018-10-11T01:39:28.249Z,22.73
2018-10-11T01:41:56.941Z,21.70
2018-10-11T01:44:25.644Z,20.67
2018-10-11T01:46:54.330Z,22.17
2018-10-11T01:49:22.986Z,20.77
2018-10-11T01:51:51.661Z,21.30
2018-10-11T01:54:20.391Z,20.73
2018-10-11T01:56:49.101Z,22.77
2018-10-11T01:59:17.939Z,20.60
2018-10-11T02:01:46.584Z,23.37
2018-10-11T02:04:15.205Z,22.80
2018-10-11T02:06:43.897Z,22.70
2018-10-11T02:09:12.575Z,21.87
2018-10-11T02:11:41.256Z,22.70
2018-10-11T02:14:09.925Z,21.20
2018-10-11T02:16:38.562Z,19.57
2018-10-11T02:19:07.343Z,20.90
2018-10-11T02:21:35.989Z,20.57
2018-10-11T02:24:04.697Z,21.70
2018-10-11T02:26:33.353Z,22.60
2018-10-11T02:29:02.045Z,22.50
2018-10-11T02:31:30.706Z,23.30
2018-10-11T02:33:59.359Z,22.40
2018-10-11T02:36:28.042Z,21.57
2018-10-11T02:38:56.711Z,20.83
2018-10-11T02:41:25.361Z,21.70
2018-10-11T02:43:54.391Z,21.50
2018-10-11T02:46:23.093Z,22.07
2018-10-11T02:48:52.863Z,22.30
2018-10-11T02:51:21.552Z,21.20
2018-10-11T02:53:50.242Z,22.20
2018-10-11T02:56:20.517Z,21.53
2018-10-11T02:59:03.714Z,21.50
2018-10-11T03:01:32.566Z,22.83
2018-10-11T03:04:03.717Z,21.53
2018-10-11T03:06:34.299Z,21.80
2018-10-11T03:09:03.260Z,22.13
2018-10-11T03:11:32.152Z,22.13
2018-10-11T03:14:00.981Z,22.57
2018-10-11T03:16:29.651Z,21.33
2018-10-11T03:18:58.348Z,22.50
2018-10-11T03:21:27.062Z,22.67
2018-10-11T03:23:55.848Z,22.00
2018-10-11T03:26:24.506Z,21.63
2018-10-11T03:28:53.193Z,23.33
2018-10-11T03:31:21.939Z,22.37
2018-10-11T03:33:50.598Z,20.90
2018-10-11T03:36:19.273Z,22.00
2018-10-11T03:38:47.926Z,21.63
2018-10-11T03:41:16.606Z,21.57
2018-10-11T03:43:45.258Z,20.07
2018-10-11T03:46:13.955Z,21.67
2018-10-11T03:48:42.642Z,21.43
2018-10-11T03:51:11.372Z,21.70
2018-10-11T03:53:40.115Z,21.23
2018-10-11T03:56:08.773Z,21.63
2018-10-11T03:58:37.447Z,22.73
2018-10-11T04:01:06.178Z,22.57
2018-10-11T04:03:34.897Z,20.90
2018-10-11T04:06:03.580Z,21.53
2018-10-11T04:08:32.256Z,21.07
2018-10-11T04:11:00.916Z,21.70
2018-10-11T04:13:29.572Z,20.27
2018-10-11T04:15:58.249Z,20.90
2018-10-11T04:18:26.889Z,22.70
2018-10-11T04:20:55.575Z,22.73
2018-10-11T04:23:29.510Z,22.30
2018-10-11T04:25:58.876Z,21.03
2018-10-11T04:28:28.513Z,21.20
2018-10-11T04:30:58.233Z,22.43
2018-10-11T04:33:27.513Z,22.23
2018-10-11T04:35:56.682Z,21.43
2018-10-11T04:38:25.619Z,23.97
2018-10-11T04:40:54.298Z,24.50
2018-10-11T04:43:22.970Z,23.70
2018-10-11T04:45:51.640Z,22.00
2018-10-11T04:48:20.298Z,24.33
2018-10-11T04:50:48.999Z,23.50
2018-10-11T04:53:17.689Z,21.47
2018-10-11T04:55:46.353Z,21.80
2018-10-11T04:58:14.985Z,22.13
2018-10-11T05:00:43.658Z,25.33
2018-10-11T05:03:13.077Z,25.20
2018-10-11T05:05:42.590Z,26.20
2018-10-11T05:08:11.648Z,26.30
2018-10-11T05:10:40.424Z,26.00
2018-10-11T05:13:09.212Z,24.23
2018-10-11T05:15:42.401Z,25.87
2018-10-11T05:18:12.090Z,26.80
2018-10-11T05:20:40.744Z,24.80
2018-10-11T05:23:11.992Z,25.60
2018-10-11T05:26:00.991Z,24.53
2018-10-11T05:28:29.750Z,23.37
2018-10-11T05:30:58.437Z,24.23
2018-10-11T05:33:27.779Z,23.07
2018-10-11T05:35:56.521Z,23.93
2018-10-11T05:38:25.277Z,25.20
2018-10-11T05:40:54.021Z,25.60
2018-10-11T05:43:22.777Z,26.13
2018-10-11T05:45:53.466Z,26.50
2018-10-11T05:48:22.471Z,25.83
2018-10-11T05:50:51.657Z,24.90
2018-10-11T05:53:20.605Z,25.73
2018-10-11T05:55:50.079Z,25.27
2018-10-11T05:58:19.610Z,24.47
2018-10-11T06:00:48.380Z,24.90
2018-10-11T06:03:17.110Z,23.43
2018-10-11T06:05:45.840Z,23.70
2018-10-11T06:08:14.609Z,21.87
2018-10-11T06:10:44.372Z,23.20
2018-10-11T06:13:13.157Z,22.93
2018-10-11T06:15:42.271Z,22.97
2018-10-11T06:18:11.556Z,22.70
2018-10-11T06:20:40.603Z,21.53
2018-10-11T06:23:09.409Z,22.90
2018-10-11T06:25:52.406Z,23.10
2018-10-11T06:28:21.281Z,22.60
2018-10-11T06:30:50.040Z,23.27
2018-10-11T06:33:18.835Z,22.10
2018-10-11T06:35:47.685Z,23.40
2018-10-11T06:38:16.459Z,23.87
2018-10-11T06:40:45.238Z,24.10
2018-10-11T06:43:14.026Z,24.73
2018-10-11T06:45:43.753Z,24.17
2018-10-11T06:48:12.541Z,24.60
2018-10-11T06:50:42.675Z,25.43
2018-10-11T06:53:11.749Z,27.90
2018-10-11T06:55:41.172Z,25.63
2018-10-11T06:58:09.814Z,26.80
2018-10-11T07:00:38.541Z,24.17
2018-10-11T07:03:07.314Z,25.53
2018-10-11T07:05:41.774Z,25.17
2018-10-11T07:08:10.368Z,25.07
2018-10-11T07:10:39.087Z,25.97
2018-10-11T07:13:08.132Z,25.90
2018-10-11T07:15:36.810Z,25.13
2018-10-11T07:18:05.526Z,24.60
2018-10-11T07:20:34.233Z,24.13
2018-10-11T07:23:02.947Z,23.87
2018-10-11T07:25:31.604Z,22.97
2018-10-11T07:28:00.264Z,23.60
2018-10-11T07:30:28.963Z,22.80
2018-10-11T07:32:57.628Z,23.43
2018-10-11T07:35:26.371Z,24.20
2018-10-11T07:37:54.977Z,25.20
2018-10-11T07:40:40.367Z,26.30
2018-10-11T07:43:09.011Z,24.13
2018-10-11T07:45:37.672Z,25.80
2018-10-11T07:48:06.345Z,22.53
2018-10-11T07:50:35.007Z,24.30
2018-10-11T07:53:03.648Z,22.67
2018-10-11T07:55:32.341Z,23.17
2018-10-11T07:58:01.010Z,22.10
2018-10-11T08:00:29.640Z,21.63
2018-10-11T08:02:58.289Z,22.27
2018-10-11T08:05:26.934Z,21.37
2018-10-11T08:07:55.627Z,22.70
2018-10-11T08:10:24.364Z,19.83
2018-10-11T08:12:52.998Z,20.67
2018-10-11T08:15:21.757Z,19.73
2018-10-11T08:17:50.699Z,20.07
2018-10-11T08:20:19.182Z,18.97
2018-10-11T08:22:47.764Z,19.73
2018-10-11T08:25:16.842Z,20.80
2018-10-11T08:27:45.220Z,18.10
2018-10-11T08:30:13.887Z,18.80
2018-10-11T08:32:42.753Z,21.27
2018-10-11T08:35:11.248Z,19.50
2018-10-11T08:37:39.945Z,20.10
2018-10-11T08:40:08.601Z,20.07
2018-10-11T08:42:37.239Z,19.53
2018-10-11T08:45:06.306Z,19.93
2018-10-11T08:47:34.948Z,18.83
2018-10-11T08:50:03.662Z,18.43
2018-10-11T08:52:32.288Z,18.50
2018-10-11T08:55:01.007Z,18.40
2018-10-11T08:57:29.694Z,18.60
2018-10-11T08:59:58.380Z,19.50
2018-10-11T09:02:27.068Z,18.90
2018-10-11T09:04:55.733Z,17.77
2018-10-11T09:07:24.360Z,20.80
2018-10-11T09:09:53.686Z,18.13
2018-10-11T09:12:21.752Z,18.60
2018-10-11T09:14:50.424Z,18.00
2018-10-11T09:17:19.097Z,17.53
2018-10-11T09:19:47.740Z,16.30
2018-10-11T09:22:16.432Z,16.13
2018-10-11T09:24:45.084Z,15.63
2018-10-11T09:27:13.797Z,15.57
2018-10-11T09:29:42.445Z,15.87
2018-10-11T09:32:11.073Z,16.40
2018-10-11T09:34:39.769Z,16.87
2018-10-11T09:37:08.405Z,16.10
2018-10-11T09:39:37.082Z,15.80
2018-10-11T09:42:05.720Z,15.90
2018-10-11T09:44:34.433Z,15.47
2018-10-11T09:47:03.225Z,14.93
2018-10-11T09:49:41.977Z,14.10
2018-10-11T09:52:10.687Z,13.20
2018-10-11T09:54:39.503Z,13.57
2018-10-11T09:57:14.572Z,13.87
2018-10-11T09:59:43.217Z,14.50
2018-10-11T10:02:12.640Z,14.67
2018-10-11T10:04:44.537Z,13.60
2018-10-11T10:07:13.405Z,13.37
2018-10-11T10:09:43.003Z,13.37
2018-10-11T10:12:12.522Z,12.87
2018-10-11T10:14:42.136Z,13.27
2018-10-11T10:17:10.968Z,12.80
2018-10-11T10:19:39.805Z,12.40
2018-10-11T10:22:08.824Z,12.90
2018-10-11T10:24:38.900Z,13.47
2018-10-11T10:27:07.682Z,13.87
2018-10-11T10:29:36.719Z,13.13
2018-10-11T10:32:05.897Z,12.17
2018-10-11T10:34:34.550Z,10.57
2018-10-11T10:37:03.234Z,10.77
2018-10-11T10:39:31.912Z,11.83
2018-10-11T10:42:00.538Z,12.67
2018-10-11T10:44:29.194Z,11.40
2018-10-11T10:46:57.837Z,12.07
2018-10-11T10:49:26.458Z,12.27
2018-10-11T10:51:55.223Z,13.40
2018-10-11T10:54:29.909Z,11.77
2018-10-11T10:56:59.224Z,12.20
2018-10-11T10:59:27.925Z,12.97
2018-10-11T11:01:56.698Z,11.60
2018-10-11T11:04:25.599Z,11.77
2018-10-11T11:06:54.333Z,10.67
2018-10-11T11:09:23.344Z,11.20
2018-10-11T11:11:52.827Z,11.73
2018-10-11T11:14:21.478Z,10.40
2018-10-11T11:16:50.148Z,11.33
2018-10-11T11:19:18.785Z,12.10
2018-10-11T11:21:47.449Z,11.40
2018-10-11T11:24:16.112Z,10.60
2018-10-11T11:26:45.769Z,11.30
2018-10-11T11:29:14.423Z,10.37
2018-10-11T11:31:43.044Z,10.30
2018-10-11T11:34:11.693Z,11.20
2018-10-11T11:36:40.465Z,10.87
2018-10-11T11:39:10.219Z,10.00
2018-10-11T11:41:39.241Z,10.70
2018-10-11T11:44:08.191Z,10.20
2018-10-11T11:46:36.895Z,10.60
2018-10-11T11:49:07.651Z,10.70
2018-10-11T11:51:38.619Z,10.17
2018-10-11T11:54:12.573Z,9.40
2018-10-11T11:56:41.332Z,10.57
2018-10-11T11:59:10.055Z,10.47
2018-10-11T12:01:38.700Z,11.57
2018-10-11T12:04:07.387Z,10.30
2018-10-11T12:06:36.092Z,10.10
2018-10-11T12:09:08.977Z,10.37
2018-10-11T12:11:37.264Z,10.27
2018-10-11T12:14:06.253Z,10.07
2018-10-11T12:16:35.046Z,9.80
2018-10-11T12:19:03.700Z,9.00
2018-10-11T12:21:32.364Z,10.27
2018-10-11T12:24:00.966Z,9.40
2018-10-11T12:26:29.675Z,10.20
2018-10-11T12:28:59.545Z,11.07
2018-10-11T12:31:28.111Z,10.33
2018-10-11T12:33:56.890Z,10.30
2018-10-11T12:36:25.559Z,9.67
2018-10-11T12:38:55.116Z,9.13
2018-10-11T12:41:22.920Z,10.00
2018-10-11T12:43:51.616Z,8.93
2018-10-11T12:46:20.329Z,10.27
2018-10-11T12:48:48.975Z,9.30
2018-10-11T12:51:24.704Z,8.40
2018-10-11T12:53:53.394Z,10.00
2018-10-11T12:56:22.106Z,10.50
2018-10-11T12:58:50.894Z,9.03
2018-10-11T13:01:21.126Z,9.80
2018-10-11T13:03:48.446Z,10.03
2018-10-11T13:06:30.868Z,10.20
2018-10-11T13:08:59.550Z,9.10
2018-10-11T13:11:28.210Z,10.83
2018-10-11T13:13:56.941Z,10.03
2018-10-11T13:16:25.667Z,10.03
2018-10-11T13:18:54.321Z,8.67
2018-10-11T13:21:22.985Z,8.97
2018-10-11T13:23:51.739Z,9.40
2018-10-11T13:26:22.501Z,9.23
2018-10-11T13:28:51.209Z,8.10
2018-10-11T13:31:19.885Z,9.30
2018-10-11T13:33:51.819Z,9.07
2018-10-11T13:36:17.271Z,10.63
2018-10-11T13:38:45.956Z,9.47
2018-10-11T13:41:14.742Z,9.97
2018-10-11T13:43:43.368Z,10.17
2018-10-11T13:46:12.118Z,10.60
2018-10-11T13:48:40.740Z,8.83
2018-10-11T13:51:09.496Z,9.17
2018-10-11T13:53:38.485Z,9.17
2018-10-11T13:56:07.458Z,9.20
2018-10-11T13:58:41.730Z,10.17
2018-10-11T14:01:10.357Z,9.23
2018-10-11T14:03:39.057Z,8.60
2018-10-11T14:06:08.045Z,9.43
2018-10-11T14:08:39.216Z,9.27
2018-10-11T14:11:08.520Z,8.13
2018-10-11T14:13:37.731Z,9.50
2018-10-11T14:16:06.465Z,9.00
2018-10-11T14:18:35.528Z,9.50
2018-10-11T14:21:04.770Z,10.23
2018-10-11T14:23:33.492Z,8.90
2018-10-11T14:26:02.124Z,8.90
2018-10-11T14:28:30.865Z,9.13
2018-10-11T14:30:59.517Z,8.73
2018-10-11T14:33:28.183Z,8.93
2018-10-11T14:35:56.837Z,9.17
2018-10-11T14:38:25.515Z,8.90
2018-10-11T14:40:54.234Z,8.93
2018-10-11T14:43:22.956Z,8.60
2018-10-11T14:45:51.638Z,8.87
2018-10-11T14:48:21.093Z,9.17
2018-10-11T14:50:49.818Z,8.67
2018-10-11T14:53:18.457Z,9.00
2018-10-11T14:55:47.168Z,9.20
2018-10-11T14:58:15.833Z,8.73
2018-10-11T15:00:44.571Z,8.80
2018-10-11T15:03:13.302Z,8.33
2018-10-11T15:05:41.966Z,9.87
2018-10-11T15:08:10.612Z,9.40
2018-10-11T15:10:39.309Z,8.17
2018-10-11T15:13:07.988Z,9.00
2018-10-11T15:15:37.533Z,8.73
2018-10-11T15:18:06.529Z,8.27
2018-10-11T15:20:35.186Z,9.00
2018-10-11T15:23:03.852Z,8.43
2018-10-11T15:25:32.521Z,8.90
2018-10-11T15:28:01.217Z,8.10
2018-10-11T15:30:33.622Z,8.67
2018-10-11T15:33:02.293Z,8.80
2018-10-11T15:35:30.971Z,8.73
2018-10-11T15:37:59.625Z,8.50
2018-10-11T15:40:28.305Z,8.40
2018-10-11T15:42:56.968Z,8.43
2018-10-11T15:45:25.654Z,8.10
2018-10-11T15:47:54.328Z,9.00
2018-10-11T15:50:22.988Z,8.70
2018-10-11T15:52:51.674Z,8.93
2018-10-11T15:55:20.316Z,7.87
2018-10-11T15:57:49.065Z,9.50
2018-10-11T16:00:17.768Z,8.20
2018-10-11T16:02:46.410Z,7.90
2018-10-11T16:05:15.133Z,9.00
2018-10-11T16:07:43.793Z,8.20
2018-10-11T16:10:12.488Z,8.33
2018-10-11T16:12:41.121Z,8.57
2018-10-11T16:15:09.764Z,8.23
2018-10-11T16:17:38.542Z,8.90
2018-10-11T16:20:07.189Z,8.37
2018-10-11T16:22:35.896Z,8.13
2018-10-11T16:25:04.650Z,9.30
2018-10-11T16:27:33.297Z,9.30
2018-10-11T16:30:02.003Z,9.13
2018-10-11T16:32:30.674Z,9.20
2018-10-11T16:34:59.345Z,9.20
2018-10-11T16:37:28.038Z,8.20
2018-10-11T16:39:56.685Z,9.17
2018-10-11T16:42:25.374Z,9.60
2018-10-11T16:44:54.041Z,9.07
2018-10-11T16:47:26.521Z,8.70
2018-10-11T16:49:55.214Z,9.00
2018-10-11T16:52:23.866Z,9.10
2018-10-11T16:54:52.528Z,10.57
2018-10-11T16:57:21.176Z,9.27
2018-10-11T16:59:49.872Z,9.77
2018-10-11T17:02:18.650Z,11.57
2018-10-11T17:04:47.304Z,11.77
2018-10-11T17:07:16.059Z,10.43
2018-10-11T17:09:44.746Z,10.37
2018-10-11T17:12:13.406Z,9.27
2018-10-11T17:14:42.077Z,9.60
2018-10-11T17:17:10.767Z,9.47
2018-10-11T17:19:39.452Z,9.23
2018-10-11T17:22:08.293Z,8.87
2018-10-11T17:24:36.897Z,9.10
2018-10-11T17:27:05.552Z,9.67
2018-10-11T17:29:34.321Z,8.90
2018-10-11T17:32:03.033Z,9.70
2018-10-11T17:34:44.005Z,9.83
2018-10-11T17:37:12.680Z,10.27
2018-10-11T17:39:41.338Z,10.40
2018-10-11T17:42:10.108Z,11.43
2018-10-11T17:44:38.756Z,10.07
2018-10-11T17:47:07.677Z,10.77
2018-10-11T17:49:36.363Z,11.20
2018-10-11T17:52:05.019Z,10.97
2018-10-11T17:54:33.904Z,10.70
2018-10-11T17:57:02.573Z,12.83
2018-10-11T17:59:31.240Z,12.70
2018-10-11T18:01:59.941Z,12.67
2018-10-11T18:04:28.601Z,13.30
2018-10-11T18:06:57.268Z,12.60
2018-10-11T18:09:25.945Z,12.90
2018-10-11T18:11:54.614Z,15.43
2018-10-11T18:14:23.281Z,13.70
2018-10-11T18:16:52.009Z,13.83
2018-10-11T18:19:20.750Z,13.07
2018-10-11T18:21:49.523Z,13.60
2018-10-11T18:24:18.070Z,14.27
2018-10-11T18:26:46.732Z,13.87
2018-10-11T18:29:15.465Z,14.00
2018-10-11T18:31:44.094Z,14.40
2018-10-11T18:34:12.793Z,14.73
2018-10-11T18:36:41.545Z,14.80
2018-10-11T18:39:12.103Z,15.67
2018-10-11T18:41:41.100Z,14.60
2018-10-11T18:44:10.372Z,15.90
2018-10-11T18:46:39.073Z,15.50
2018-10-11T18:49:08.200Z,15.73
2018-10-11T18:51:36.898Z,15.03
2018-10-11T18:57:09.384Z,13.77
2018-10-11T18:59:38.624Z,15.37
2018-10-11T19:02:07.462Z,13.90
2018-10-11T19:04:36.188Z,14.90
2018-10-11T19:07:05.375Z,15.03
2018-10-11T19:09:34.105Z,14.50
2018-10-11T19:12:02.895Z,15.30
2018-10-11T19:14:31.564Z,15.80
2018-10-11T19:17:00.233Z,15.53
2018-10-11T19:19:29.929Z,15.70
2018-10-11T19:21:58.837Z,15.83
2018-10-11T19:24:27.520Z,15.57
2018-10-11T19:26:56.188Z,16.80
2018-10-11T19:29:24.879Z,15.20
2018-10-11T19:31:53.573Z,15.57
2018-10-11T19:34:22.252Z,15.90
2018-10-11T19:36:50.925Z,15.57
2018-10-11T19:39:19.586Z,15.50
2018-10-11T19:44:41.141Z,16.10
2018-10-11T19:47:12.939Z,15.97
2018-10-11T19:49:41.690Z,15.90
2018-10-11T19:52:10.336Z,16.87
2018-10-11T19:54:39.004Z,16.17
2018-10-11T19:57:07.751Z,15.63
2018-10-11T20:05:23.214Z,16.93
2018-10-11T20:07:51.907Z,13.80
2018-10-11T20:10:21.186Z,15.00
2018-10-11T20:12:50.088Z,15.30
2018-10-11T20:15:18.728Z,15.87
2018-10-11T20:17:47.397Z,15.30
2018-10-11T20:20:16.059Z,14.70
2018-10-11T20:22:44.737Z,15.60
2018-10-11T20:25:13.402Z,15.60
2018-10-11T20:27:42.293Z,16.70
2018-10-11T20:30:10.953Z,17.37
2018-10-11T20:32:39.616Z,18.70
2018-10-11T20:35:08.296Z,17.37
2018-10-11T20:37:36.959Z,16.93
2018-10-11T20:40:05.656Z,16.17
2018-10-11T20:42:34.298Z,17.20
2018-10-11T20:45:03.009Z,17.60
2018-10-11T20:47:31.669Z,16.20
2018-10-11T20:50:00.296Z,14.93
2018-10-11T20:52:28.970Z,17.00
2018-10-11T20:54:57.623Z,16.77
2018-10-11T20:57:26.346Z,16.33
2018-10-11T20:59:55.004Z,16.30
2018-10-11T21:02:23.692Z,16.60
2018-10-11T21:04:52.361Z,16.93
2018-10-11T21:07:20.986Z,16.43
2018-10-11T21:09:49.616Z,15.70
2018-10-11T21:12:18.261Z,15.90
2018-10-11T21:14:46.900Z,16.23
2018-10-11T21:17:15.779Z,16.33
2018-10-11T21:19:50.368Z,16.10
2018-10-11T21:22:19.045Z,17.33
2018-10-11T21:24:47.693Z,16.23
2018-10-11T21:27:16.350Z,17.00
2018-10-11T21:29:45.026Z,16.23
2018-10-11T21:32:13.666Z,16.70
2018-10-11T21:34:42.317Z,17.03
2018-10-11T21:37:10.957Z,16.30
2018-10-11T21:39:39.582Z,18.23
2018-10-11T21:42:08.230Z,14.87
2018-10-11T21:44:36.854Z,17.50
2018-10-11T21:47:05.529Z,16.07
2018-10-11T21:49:34.160Z,17.03
2018-10-11T21:52:02.789Z,17.30
2018-10-11T21:54:31.436Z,17.60
2018-10-11T21:57:00.044Z,17.40
2018-10-11T21:59:28.704Z,17.10
2018-10-11T22:01:57.330Z,17.40
2018-10-11T22:04:25.991Z,16.63
2018-10-11T22:06:54.620Z,17.23
2018-10-11T22:09:23.261Z,17.17
2018-10-11T22:11:51.917Z,15.60
2018-10-11T22:14:20.617Z,17.13
2018-10-11T22:16:49.256Z,15.00
2018-10-11T22:19:17.913Z,15.57
2018-10-11T22:21:46.532Z,15.90
2018-10-11T22:24:15.196Z,16.10
2018-10-11T22:26:43.833Z,16.30
2018-10-11T22:29:12.448Z,15.70
2018-10-11T22:31:41.099Z,15.87
2018-10-11T22:34:09.773Z,16.50
2018-10-11T22:36:38.506Z,15.40
2018-10-11T22:39:08.989Z,15.73
2018-10-11T22:41:38.260Z,16.30
2018-10-11T22:44:07.214Z,15.87
2018-10-11T22:46:35.961Z,15.67
2018-10-11T22:49:04.753Z,15.20
2018-10-11T22:51:33.406Z,14.67
2018-10-11T22:54:02.145Z,15.10
2018-10-11T22:56:30.808Z,15.40
2018-10-11T22:58:59.431Z,15.90
2018-10-11T23:01:28.061Z,15.87
2018-10-11T23:03:56.690Z,16.40
2018-10-11T23:06:25.357Z,16.50
2018-10-11T23:08:53.984Z,16.60
2018-10-11T23:11:23.119Z,15.60
2018-10-11T23:13:51.738Z,15.17
2018-10-11T23:16:20.370Z,15.47
2018-10-11T23:18:49.021Z,16.30
2018-10-11T23:21:17.654Z,18.20
2018-10-11T23:23:46.311Z,15.87
2018-10-11T23:26:14.953Z,16.57
2018-10-11T23:28:43.580Z,16.60
2018-10-11T23:31:12.637Z,16.10
2018-10-11T23:33:42.133Z,16.00
2018-10-11T23:36:10.896Z,15.70
2018-10-11T23:38:39.660Z,16.67
2018-10-11T23:41:08.792Z,16.17
2018-10-11T23:43:37.688Z,15.27
2018-10-11T23:46:06.530Z,16.80
2018-10-11T23:48:35.171Z,15.90
2018-10-11T23:51:03.833Z,15.17
2018-10-11T23:53:32.452Z,15.97
2018-10-11T23:56:01.074Z,15.90
2018-10-11T23:58:29.720Z,15.43
